createdAt,value
2019-01-28T00:02:17.846Z,94.56
2019-01-28T00:04:56.686Z,94.37
2019-01-28T00:07:31.998Z,94.22
2019-01-28T00:10:07.148Z,94.31
2019-01-28T00:12:42.660Z,94.36
2019-01-28T00:15:16.047Z,94.52
2019-01-28T00:17:46.101Z,94.40
2019-01-28T00:20:17.670Z,94.29
2019-01-28T00:22:47.617Z,94.30
2019-01-28T00:25:19.680Z,94.38
2019-01-28T00:27:54.343Z,94.43
2019-01-28T00:30:26.277Z,94.28
2019-01-28T00:33:00.767Z,94.27
2019-01-28T00:35:33.102Z,94.46
2019-01-28T00:38:07.966Z,94.35
2019-01-28T00:40:50.813Z,94.38
2019-01-28T00:43:21.284Z,94.69
2019-01-28T00:45:57.528Z,94.62
2019-01-28T00:48:26.905Z,94.40
2019-01-28T00:51:01.643Z,94.01
2019-01-28T00:53:33.824Z,93.82
2019-01-28T00:56:04.443Z,93.87
2019-01-28T00:58:54.174Z,93.67
2019-01-28T01:01:27.016Z,93.48
2019-01-28T01:03:57.700Z,93.34
2019-01-28T01:06:32.809Z,93.21
2019-01-28T01:09:03.022Z,93.18
2019-01-28T01:11:36.278Z,93.09
2019-01-28T01:14:11.831Z,93.06
2019-01-28T01:16:45.545Z,93.11
2019-01-28T01:19:27.458Z,93.05
2019-01-28T01:21:59.197Z,93.01
2019-01-28T01:24:32.917Z,93.23
2019-01-28T01:27:16.536Z,93.28
2019-01-28T01:29:49.587Z,93.23
2019-01-28T01:32:24.049Z,93.28
2019-01-28T01:35:04.500Z,93.27
2019-01-28T01:37:41.913Z,93.35
2019-01-28T01:40:21.370Z,93.09
2019-01-28T01:42:53.313Z,92.86
2019-01-28T01:45:26.213Z,92.80
2019-01-28T01:48:04.410Z,92.77
2019-01-28T01:50:39.288Z,92.72
2019-01-28T01:53:16.492Z,92.65
2019-01-28T01:55:46.830Z,92.58
2019-01-28T01:58:20.426Z,92.53
2019-01-28T02:00:54.068Z,92.53
2019-01-28T02:03:26.421Z,92.48
2019-01-28T02:06:07.026Z,92.28
2019-01-28T02:08:41.280Z,92.17
2019-01-28T02:11:20.897Z,92.14
2019-01-28T02:13:57.193Z,92.00
2019-01-28T02:16:33.838Z,91.98
2019-01-28T02:19:13.920Z,92.30
2019-01-28T02:21:48.967Z,92.04
2019-01-28T02:24:22.002Z,91.72
2019-01-28T02:27:00.224Z,91.72
2019-01-28T02:29:32.481Z,91.58
2019-01-28T02:32:09.018Z,91.43
2019-01-28T02:34:48.050Z,91.66
2019-01-28T02:37:15.270Z,91.50
2019-01-28T02:39:47.304Z,91.31
2019-01-28T02:42:36.285Z,91.02
2019-01-28T02:45:08.711Z,91.25
2019-01-28T02:47:46.980Z,91.10
2019-01-28T02:50:18.773Z,90.75
2019-01-28T02:52:53.088Z,90.84
2019-01-28T02:55:27.983Z,90.48
2019-01-28T02:58:17.663Z,90.40
2019-01-28T03:00:38.834Z,90.35
2019-01-28T03:03:17.555Z,90.40
2019-01-28T03:05:57.545Z,90.32
2019-01-28T03:08:27.380Z,90.54
2019-01-28T03:11:00.198Z,90.87
2019-01-28T03:13:37.511Z,90.92
2019-01-28T03:16:07.196Z,91.11
2019-01-28T03:18:40.565Z,91.06
2019-01-28T03:21:13.673Z,91.01
2019-01-28T03:23:46.128Z,91.00
2019-01-28T03:26:15.914Z,90.90
2019-01-28T03:28:51.136Z,91.07
2019-01-28T03:31:23.321Z,90.94
2019-01-28T03:33:53.259Z,90.82
2019-01-28T03:36:22.635Z,90.82
2019-01-28T03:38:55.455Z,90.81
2019-01-28T03:41:28.853Z,90.61
2019-01-28T03:44:03.237Z,91.03
2019-01-28T03:46:39.333Z,90.97
2019-01-28T03:49:08.358Z,90.90
2019-01-28T03:51:45.427Z,90.90
2019-01-28T03:54:16.255Z,90.70
2019-01-28T03:56:49.040Z,90.65
2019-01-28T03:59:25.891Z,90.55
2019-01-28T04:01:56.882Z,90.44
2019-01-28T04:04:31.710Z,90.48
2019-01-28T04:07:00.845Z,90.30
2019-01-28T04:09:33.412Z,90.52
2019-01-28T04:12:11.107Z,90.76
2019-01-28T04:14:41.174Z,90.88
2019-01-28T04:17:12.269Z,90.84
2019-01-28T04:19:46.120Z,91.06
2019-01-28T04:22:14.868Z,90.99
2019-01-28T04:24:45.104Z,91.45
2019-01-28T04:27:19.325Z,91.52
2019-01-28T04:29:49.985Z,91.58
2019-01-28T04:32:25.191Z,91.73
2019-01-28T04:34:56.855Z,91.43
2019-01-28T04:37:30.393Z,91.31
2019-01-28T04:40:06.419Z,91.55
2019-01-28T04:42:40.220Z,91.55
2019-01-28T04:45:13.858Z,91.17
2019-01-28T04:47:44.889Z,91.30
2019-01-28T04:50:16.741Z,91.24
2019-01-28T04:52:52.381Z,90.82
2019-01-28T04:55:20.019Z,90.86
2019-01-28T04:57:59.749Z,90.46
2019-01-28T05:00:31.178Z,90.41
2019-01-28T05:03:00.794Z,90.53
2019-01-28T05:05:35.570Z,90.65
2019-01-28T05:08:06.510Z,90.14
2019-01-28T05:10:40.027Z,89.84
2019-01-28T05:13:14.365Z,90.02
2019-01-28T05:15:44.023Z,89.55
2019-01-28T05:18:26.109Z,89.21
2019-01-28T05:21:01.921Z,89.61
2019-01-28T05:23:35.242Z,89.48
2019-01-28T05:26:07.089Z,89.45
2019-01-28T05:28:39.313Z,89.59
2019-01-28T05:31:09.670Z,89.21
2019-01-28T05:33:46.145Z,89.01
2019-01-28T05:36:13.483Z,88.88
2019-01-28T05:38:45.004Z,88.70
2019-01-28T05:41:19.084Z,88.63
2019-01-28T05:43:50.081Z,88.48
2019-01-28T05:46:23.219Z,88.72
2019-01-28T05:48:53.878Z,88.83
2019-01-28T05:51:22.539Z,88.75
2019-01-28T05:53:59.249Z,88.53
2019-01-28T05:56:38.818Z,88.34
2019-01-28T05:59:23.226Z,88.07
2019-01-28T06:02:14.063Z,88.44
2019-01-28T06:05:06.931Z,88.72
2019-01-28T06:08:48.732Z,88.48
2019-01-28T06:13:13.778Z,88.37
2019-01-28T06:28:01.257Z,88.61
2019-01-28T06:32:12.591Z,88.35
2019-01-28T06:42:59.352Z,88.41
2019-01-28T06:48:32.586Z,87.97
2019-01-28T06:56:09.940Z,89.30
2019-01-28T07:07:28.961Z,89.83
2019-01-28T07:16:05.437Z,89.94
2019-01-28T07:29:00.489Z,91.66
2019-01-28T07:29:19.880Z,91.66
2019-01-28T07:32:45.871Z,91.85
2019-01-28T07:53:31.345Z,92.31
2019-01-28T07:56:07.835Z,91.75
2019-01-28T08:24:08.378Z,87.02
2019-01-28T08:27:56.525Z,86.74
2019-01-28T08:31:36.515Z,85.33
2019-01-28T08:34:40.723Z,85.28
2019-01-28T08:46:57.365Z,81.52
2019-01-28T08:50:29.735Z,79.54
2019-01-28T08:52:12.785Z,74.86
2019-01-28T08:54:35.230Z,72.86
2019-01-28T08:57:36.582Z,74.33
2019-01-28T09:00:56.643Z,75.57
2019-01-28T09:03:43.175Z,74.40
2019-01-28T09:10:47.887Z,74.68
2019-01-28T09:17:20.264Z,76.68
2019-01-28T09:20:27.532Z,74.42
2019-01-28T09:23:16.246Z,75.29
2019-01-28T09:26:06.778Z,73.78
2019-01-28T09:29:06.062Z,78.06
2019-01-28T09:32:11.399Z,79.39
2019-01-28T09:34:33.944Z,79.62
2019-01-28T09:37:20.369Z,79.90
2019-01-28T09:40:14.094Z,80.33
2019-01-28T09:43:33.572Z,81.50
2019-01-28T09:47:28.945Z,81.40
2019-01-28T09:49:37.801Z,82.80
2019-01-28T09:52:30.906Z,83.56
2019-01-28T10:02:54.220Z,82.92
2019-01-28T10:05:56.085Z,83.41
2019-01-28T10:08:54.640Z,82.99
2019-01-28T10:11:49.742Z,82.88
2019-01-28T10:14:50.912Z,83.14
2019-01-28T10:17:25.628Z,83.23
2019-01-28T10:20:58.144Z,83.51
2019-01-28T10:24:04.525Z,83.11
2019-01-28T10:29:53.653Z,83.64
2019-01-28T10:32:56.246Z,83.53
2019-01-28T10:36:01.046Z,83.85
2019-01-28T10:39:31.461Z,83.88
2019-01-28T10:41:54.863Z,84.04
2019-01-28T10:45:01.469Z,84.49
2019-01-28T10:47:48.758Z,84.21
2019-01-28T10:50:46.722Z,84.52
2019-01-28T10:53:38.183Z,84.05
2019-01-28T10:56:38.187Z,83.96
2019-01-28T11:00:17.969Z,84.17
2019-01-28T11:07:34.287Z,83.25
2019-01-28T11:10:11.772Z,84.01
2019-01-28T11:12:58.039Z,83.71
2019-01-28T11:15:39.042Z,83.33
2019-01-28T11:18:39.659Z,82.21
2019-01-28T11:21:18.146Z,82.46
2019-01-28T11:26:57.445Z,82.69
2019-01-28T11:30:11.625Z,82.72
2019-01-28T11:33:00.974Z,82.02
2019-01-28T11:35:43.508Z,81.71
2019-01-28T11:38:36.837Z,82.10
2019-01-28T11:41:30.324Z,80.59
2019-01-28T11:44:30.398Z,81.40
2019-01-28T11:52:11.222Z,81.59
2019-01-28T12:09:57.126Z,79.94
2019-01-28T12:16:45.928Z,79.58
2019-01-28T12:19:53.855Z,80.89
2019-01-28T12:23:16.794Z,80.65
2019-01-28T12:29:36.296Z,81.93
2019-01-28T12:32:18.789Z,81.69
2019-01-28T12:35:12.323Z,80.27
2019-01-28T12:37:55.484Z,79.99
2019-01-28T12:40:51.321Z,80.23
2019-01-28T12:43:44.844Z,79.47
2019-01-28T12:49:50.442Z,81.33
2019-01-28T12:52:32.218Z,81.29
2019-01-28T12:57:40.257Z,81.69
2019-01-28T12:59:26.143Z,81.81
2019-01-28T13:02:32.308Z,80.72
2019-01-28T13:06:45.517Z,80.44
2019-01-28T13:07:49.709Z,80.50
2019-01-28T13:10:56.579Z,81.35
2019-01-28T13:16:46.254Z,80.31
2019-01-28T13:22:55.153Z,80.96
2019-01-28T13:25:45.644Z,80.58
2019-01-28T13:28:58.038Z,81.80
2019-01-28T13:31:57.608Z,81.43
2019-01-28T13:34:51.560Z,81.34
2019-01-28T13:37:44.193Z,81.54
2019-01-28T13:41:06.724Z,80.65
2019-01-28T13:43:27.791Z,80.81
2019-01-28T13:46:24.579Z,80.96
2019-01-28T13:49:37.874Z,81.35
2019-01-28T13:55:16.238Z,80.24
2019-01-28T13:58:19.239Z,80.39
2019-01-28T14:04:06.885Z,79.37
2019-01-28T14:06:54.240Z,79.22
2019-01-28T14:12:51.803Z,79.72
2019-01-28T14:16:29.997Z,79.76
2019-01-28T14:19:25.831Z,80.16
2019-01-28T14:22:24.240Z,80.87
2019-01-28T14:24:59.936Z,81.32
2019-01-28T14:27:49.784Z,80.64
2019-01-28T14:31:44.678Z,80.86
2019-01-28T14:34:15.139Z,81.34
2019-01-28T14:36:55.550Z,80.96
2019-01-28T14:40:13.701Z,82.00
2019-01-28T14:43:01.950Z,81.91
2019-01-28T14:49:32.230Z,82.73
2019-01-28T14:51:53.542Z,81.69
2019-01-28T15:35:28.756Z,85.25
2019-01-28T15:45:38.136Z,84.65
2019-01-28T15:48:07.174Z,84.76
2019-01-28T15:50:36.556Z,85.10
2019-01-28T15:53:15.011Z,85.26
2019-01-28T15:55:54.649Z,85.18
2019-01-28T15:58:23.120Z,84.99
2019-01-28T16:00:52.052Z,84.99
2019-01-28T16:03:28.624Z,85.26
2019-01-28T16:06:00.697Z,85.24
2019-01-28T16:08:37.233Z,85.08
2019-01-28T16:11:12.535Z,84.56
2019-01-28T16:13:43.721Z,84.48
2019-01-28T16:16:13.082Z,83.49
2019-01-28T16:18:42.413Z,83.06
2019-01-28T16:21:11.373Z,82.30
2019-01-28T16:23:40.265Z,82.52
2019-01-28T16:26:10.833Z,82.18
2019-01-28T16:28:39.992Z,82.79
2019-01-28T16:31:08.763Z,82.34
2019-01-28T16:33:42.088Z,81.85
2019-01-28T16:36:11.411Z,81.80
2019-01-28T16:38:42.276Z,81.61
2019-01-28T16:41:11.094Z,81.47
2019-01-28T16:43:40.702Z,81.47
2019-01-28T16:46:09.984Z,81.40
2019-01-28T16:48:39.476Z,80.73
2019-01-28T16:51:09.598Z,81.27
2019-01-28T16:53:38.171Z,81.28
2019-01-28T16:56:07.935Z,81.62
2019-01-28T16:58:38.335Z,82.21
2019-01-28T17:01:07.489Z,82.18
2019-01-28T17:03:36.469Z,81.91
2019-01-28T17:06:06.263Z,82.06
2019-01-28T17:08:35.176Z,81.87
2019-01-28T17:11:04.761Z,81.08
2019-01-28T17:13:33.669Z,81.78
2019-01-28T17:16:02.653Z,82.02
2019-01-28T17:18:31.295Z,82.04
2019-01-28T17:21:00.459Z,81.93
2019-01-28T17:23:29.094Z,82.14
2019-01-28T17:25:58.031Z,82.49
2019-01-28T17:28:26.932Z,82.70
2019-01-28T17:30:55.729Z,82.79
2019-01-28T17:33:24.386Z,82.40
2019-01-28T17:35:53.346Z,82.64
2019-01-28T17:38:22.234Z,82.71
2019-01-28T17:40:51.001Z,82.46
2019-01-28T17:43:19.893Z,83.28
2019-01-28T17:45:48.839Z,83.49
2019-01-28T17:48:18.662Z,83.70
2019-01-28T17:50:49.168Z,84.08
2019-01-28T17:53:18.256Z,83.53
2019-01-28T17:55:46.929Z,82.63
2019-01-28T17:58:15.978Z,82.54
2019-01-28T18:00:58.529Z,82.33
2019-01-28T18:03:27.309Z,82.30
2019-01-28T18:05:56.414Z,82.22
2019-01-28T18:08:25.265Z,82.72
2019-01-28T18:10:54.875Z,82.57
2019-01-28T18:13:24.440Z,84.09
2019-01-28T18:15:53.532Z,84.41
2019-01-28T18:18:22.820Z,84.59
2019-01-28T18:20:52.249Z,83.56
2019-01-28T18:23:31.578Z,83.79
2019-01-28T18:26:01.437Z,83.28
2019-01-28T18:28:30.639Z,83.43
2019-01-28T18:30:59.818Z,83.53
2019-01-28T18:33:28.677Z,83.32
2019-01-28T18:36:05.366Z,83.46
2019-01-28T18:38:28.639Z,84.33
2019-01-28T18:40:57.949Z,84.52
2019-01-28T18:43:27.552Z,84.74
2019-01-28T18:45:56.450Z,84.53
2019-01-28T18:48:27.167Z,83.99
2019-01-28T18:50:59.647Z,83.96
2019-01-28T18:53:30.438Z,84.15
2019-01-28T18:55:59.888Z,84.38
2019-01-28T18:58:28.606Z,84.56
2019-01-28T19:00:57.286Z,84.28
2019-01-28T19:03:26.295Z,84.04
2019-01-28T19:05:59.481Z,83.90
2019-01-28T19:08:53.162Z,83.67
2019-01-28T19:11:27.824Z,83.84
2019-01-28T19:14:05.749Z,84.06
2019-01-28T19:16:52.771Z,84.08
2019-01-28T19:19:34.153Z,84.87
2019-01-28T19:25:23.676Z,85.53
2019-01-28T19:27:53.043Z,84.73
2019-01-28T19:30:24.268Z,84.48
2019-01-28T20:57:00.757Z,88.10
